• Join FlightAware (Why Join?)
  • Login
  • US Flag 
Rudolph Flight #1: Arrived! 
11:45AM EST


 

Airport Tracker/Info


-or-


 

Live Flight TrackerFlight Track Log ✈ GGA1 ✈ 16-Apr-2013 ✈ KAHN - KSAV

Flight Track Log - Related Links

Times and Time Zones

All times are in EDT time to prevent confusion due to time zone crossing. See the GGA1 flight status page for this flight to view local times or setup timezone preferences in your user account.

Time Position Orientation Groundspeed Altitude Reporting Facility
EDT Latitude Longitude Course Direction KTS MPH feet Rate Location/Type
08:11AM 33.9333 -83.3500 157° South 182 209 1,800  Level Atlanta TRACON
08:13AM 33.8903 -83.3281 157° South 163 188 3,500 1,560 Climbing Atlanta Center
08:14AM 33.8650 -83.2883 127° Southeast 158 182 5,400 1,800 Climbing Atlanta Center
08:15AM 33.8356 -83.2511 134° Southeast 153 176 7,200 1,800 Climbing Atlanta Center
08:16AM 33.8039 -83.2114 134° Southeast 153 176 9,000 1,740 Climbing Atlanta Center
08:17AM 33.7744 -83.1742 134° Southeast 153 176 10,700 1,620 Climbing Atlanta Center
08:18AM 33.7386 -83.1294 134° Southeast 158 182 12,300 1,500 Climbing Atlanta Center
08:19AM 33.7028 -83.0875 136° Southeast 175 201 13,700 1,260 Climbing Atlanta Center
08:20AM 33.6650 -83.0431 136° Southeast 182 209 14,900 600 Climbing Atlanta Center
08:21AM 33.6186 -82.9886 136° Southeast 205 236 15,000  Climbing Atlanta Center
08:22AM 33.5617 -82.9169 134° Southeast 249 287 15,000  Level Atlanta Center
08:23AM 33.5089 -82.8503 134° Southeast 266 306 15,000  Level Atlanta Center
08:24AM 33.4539 -82.7864 136° Southeast 272 313 15,000  Level Atlanta Center
08:25AM 33.4011 -82.7200 134° Southeast 277 319 15,000  Level Atlanta Center
08:26AM 33.3461 -82.6536 135° Southeast 277 319 15,000  Level Atlanta Center
08:27AM 33.2931 -82.5900 135° Southeast 277 319 15,000  Level Atlanta Center
08:28AM 33.2400 -82.5261 135° Southeast 277 319 15,000  Level Atlanta Center
08:29AM 33.1872 -82.4603 134° Southeast 277 319 15,000  Level Atlanta Center
08:30AM 33.1361 -82.3967 134° Southeast 277 319 15,000  Level Atlanta Center
08:31AM 33.0789 -82.3308 136° Southeast 277 319 15,000  Level Atlanta Center
08:32AM 33.0258 -82.2672 135° Southeast 277 319 15,000  Level Atlanta Center
08:33AM 32.9747 -82.2039 134° Southeast 277 319 15,000 -360 Level Atlanta Center
08:35AM 32.8694 -82.0789 135° Southeast 278 320 14,000 -600 Descending Jacksonville Center
08:36AM 32.8106 -82.0078 135° Southeast 288 331 13,200 -840 Descending Jacksonville Center
08:37AM 32.7536 -81.9392 135° Southeast 288 331 12,400 -900 Descending Jacksonville Center
08:38AM 32.6989 -81.8706 133° Southeast 288 331 11,500 -720 Descending Jacksonville Center
08:39AM 32.6400 -81.8047 137° Southeast 288 331 11,000 -300 Descending Jacksonville Center
08:40AM 32.5808 -81.7364 136° Southeast 277 319 11,000 -240 Level Jacksonville Center
08:41AM 32.5344 -81.6803 134° Southeast 271 312 10,600 -600 Descending Jacksonville Center
08:42AM 32.4775 -81.6144 136° Southeast 279 321 9,800 -1,020 Descending Jacksonville Center
08:43AM 32.4183 -81.5464 136° Southeast 279 321 8,600 -1,320 Descending Jacksonville Center
08:44AM 32.3572 -81.4931 144° Southeast 273 314 7,200 -1,800 Descending Jacksonville Center
08:45AM 32.3022 -81.4472 145° Southeast 273 314 5,100 -2,100 Descending Jacksonville Center
08:46AM 32.2392 -81.3944 145° Southeast 266 306 3,000 -1,560 Descending Jacksonville Center
08:47AM 32.1864 -81.3533 147° Southeast 255 293 2,000 -600 Descending Jacksonville Center
08:48AM 32.1364 -81.3494 176° South 197 227 1,900 -60 Descending Jacksonville Center
08:49AM 32.1272 -81.3053 104° East 132 152 1,900  Level Jacksonville Center
08:51AM 32.1167 -81.2000 North  Level FlightAware Approximate
08:58AM 32.1276 -81.2021 North  Level Estimated
08:59AM 32.1276 -81.2021 North  Level Estimated
09:00AM 32.1276 -81.2021 North  Level Estimated